Tuesday, June 19, 2018, 4:04 PM EDT
Back to Local

KFAF, Fort Eustis / Felker

Location: Fort Eustis, VA, United States Lat: 37.133
Local Time: 4:04 PM EDT (20:04 GMT) Lon: -76.617
Time Zone: US/Eastern Elev: 13 ft

Show me the last for .
Show Decoded

2018-06-19 14:56 METAR KFAF 191856Z AUTO 32006KT 10SM CLR 36/22 A2979 RMK AO2 SLP091 T03550220 =
2018-06-19 13:56 METAR KFAF 191756Z AUTO 32003KT 10SM CLR 35/22 A2981 RMK AO2 SLP098 T03510217
                 10354 20269 57014 =
2018-06-19 12:56 METAR KFAF 191656Z AUTO 29006KT 10SM FEW190 34/23 A2982 RMK AO2 SLP101 T03430227
                 =
2018-06-19 11:56 METAR KFAF 191556Z AUTO 32007KT 10SM CLR 34/24 A2984 RMK AO2 SLP108 T03370239 =
2018-06-19 10:56 METAR KFAF 191456Z AUTO 32007KT 10SM CLR 32/25 A2985 RMK AO2 SLP111 T03220245
                 57009 =
2018-06-19 09:56 METAR KFAF 191356Z AUTO 33005KT 10SM CLR 31/24 A2985 RMK AO2 SLP111 T03050244 =
2018-06-19 08:56 METAR KFAF 191256Z AUTO 24006KT 10SM CLR 28/24 A2986 RMK AO2 SLP115 T02840235 =
2018-06-19 07:56 METAR KFAF 191156Z AUTO 25004KT 10SM CLR 27/24 A2987 RMK AO2 SLP118 70004
                 T02690237 10269 20251 51006 =
2018-06-19 06:56 METAR KFAF 191056Z AUTO 22003KT 10SM CLR 26/23 A2987 RMK AO2 SLP118 T02560232 =
2018-06-19 05:56 METAR KFAF 190956Z AUTO 22003KT 10SM CLR 26/23 A2987 RMK AO2 SLP118 T02550230 =
2018-06-19 04:56 METAR KFAF 190856Z AUTO 31003KT 10SM CLR 26/23 A2985 RMK AO2 SLP111 T02630231
                 55010 =
2018-06-19 03:56 METAR KFAF 190756Z AUTO 00000KT 10SM CLR 26/24 A2985 RMK AO2 SLP111 T02590235 =
2018-06-19 02:56 METAR KFAF 190656Z AUTO 12003KT 10SM CLR 26/24 A2987 RMK AO2 SLP118 T02620240 =
2018-06-19 01:56 METAR KFAF 190556Z AUTO 14005KT 10SM CLR 26/24 A2988 RMK AO2 SLP121 T02630239
                 10282 20262 57012 =
2018-06-19 00:56 METAR KFAF 190456Z AUTO 14004KT 10SM CLR 26/24 A2990 RMK AO2 SLP128 T02640244
                 403280228 =
2018-06-18 23:56 METAR KFAF 190356Z AUTO 11004KT 10SM CLR 27/25 A2992 RMK AO2 SLP135 T02670245 =
2018-06-18 22:56 METAR KFAF 190256Z AUTO 11003KT 10SM CLR 26/24 A2992 RMK AO2 SLP135 T02630237
                 53002 =
2018-06-18 21:56 METAR KFAF 190156Z AUTO 12003KT 10SM CLR 27/24 A2991 RMK AO2 SLP132 T02680236 =
2018-06-18 20:56 METAR KFAF 190056Z 00000KT 10SM CLR 27/23 A2991 RMK AO2A SLP132 T02710233 =
2018-06-18 19:56 METAR KFAF 182356Z 10005KT 6SM HZ CLR 28/23 A2991 RMK AO2A SLP132 T02830232
                 10328 20283 57018 =
2018-06-18 18:56 METAR KFAF 182256Z 12007KT 4SM HZ CLR 30/25 A2993 RMK SLP138 T02990247 =
2018-06-18 17:56 METAR KFAF 182156Z AUTO 00000KT 10SM CLR 31/24 A2994 RMK AO2 SLP142 T03110237 =
2018-06-18 16:56 METAR KFAF 182056Z AUTO 25004KT 10SM CLR 32/23 A2997 RMK AO2 SLP152 T03200229
                 57015 =

Support USWX by starting your Amazon purchase here.